sensor_id;sensor_type;location;lat;lon;timestamp;P1;durP1;ratioP1;P2;durP2;ratioP2
21721;SDS011;11023;48.274;7.794;2023-05-01T00:00:20;7.78;;;5.10;;
21721;SDS011;11023;48.274;7.794;2023-05-01T00:02:46;7.70;;;5.50;;
21721;SDS011;11023;48.274;7.794;2023-05-01T00:05:11;6.10;;;5.50;;
21721;SDS011;11023;48.274;7.794;2023-05-01T00:07:37;9.75;;;6.78;;
21721;SDS011;11023;48.274;7.794;2023-05-01T00:10:04;7.30;;;6.50;;
21721;SDS011;11023;48.274;7.794;2023-05-01T00:12:31;8.73;;;7.07;;
21721;SDS011;11023;48.274;7.794;2023-05-01T00:14:56;8.88;;;7.05;;
21721;SDS011;11023;48.274;7.794;2023-05-01T00:17:23;8.23;;;6.70;;
21721;SDS011;11023;48.274;7.794;2023-05-01T00:19:52;7.70;;;6.57;;
21721;SDS011;11023;48.274;7.794;2023-05-01T00:22:18;10.80;;;6.55;;
21721;SDS011;11023;48.274;7.794;2023-05-01T00:24:43;9.45;;;7.13;;
21721;SDS011;11023;48.274;7.794;2023-05-01T00:27:12;8.50;;;7.18;;
21721;SDS011;11023;48.274;7.794;2023-05-01T00:29:38;8.13;;;7.07;;
21721;SDS011;11023;48.274;7.794;2023-05-01T00:32:03;7.57;;;6.75;;
21721;SDS011;11023;48.274;7.794;2023-05-01T00:34:29;7.45;;;6.68;;
21721;SDS011;11023;48.274;7.794;2023-05-01T00:36:55;6.85;;;6.18;;
21721;SDS011;11023;48.274;7.794;2023-05-01T00:39:21;8.35;;;6.95;;
21721;SDS011;11023;48.274;7.794;2023-05-01T00:41:47;7.95;;;7.15;;
21721;SDS011;11023;48.274;7.794;2023-05-01T00:44:13;8.05;;;7.20;;
21721;SDS011;11023;48.274;7.794;2023-05-01T00:46:39;8.45;;;6.90;;
21721;SDS011;11023;48.274;7.794;2023-05-01T00:49:05;8.18;;;6.53;;
21721;SDS011;11023;48.274;7.794;2023-05-01T00:51:30;9.13;;;7.22;;
21721;SDS011;11023;48.274;7.794;2023-05-01T00:53:58;9.18;;;7.13;;
21721;SDS011;11023;48.274;7.794;2023-05-01T00:56:25;9.30;;;7.07;;
21721;SDS011;11023;48.274;7.794;2023-05-01T00:58:52;8.95;;;7.00;;
21721;SDS011;11023;48.274;7.794;2023-05-01T01:01:19;8.10;;;7.30;;
21721;SDS011;11023;48.274;7.794;2023-05-01T01:03:45;8.38;;;6.93;;
21721;SDS011;11023;48.274;7.794;2023-05-01T01:09:03;8.88;;;7.00;;
21721;SDS011;11023;48.274;7.794;2023-05-01T01:14:31;8.25;;;7.28;;
21721;SDS011;11023;48.274;7.794;2023-05-01T01:17:08;8.68;;;7.57;;
21721;SDS011;11023;48.274;7.794;2023-05-01T01:20:13;8.85;;;7.30;;
21721;SDS011;11023;48.274;7.794;2023-05-01T01:35:16;7.68;;;6.72;;
21721;SDS011;11023;48.274;7.794;2023-05-01T01:40:28;9.98;;;7.53;;
21721;SDS011;11023;48.274;7.794;2023-05-01T01:43:17;8.30;;;7.45;;
21721;SDS011;11023;48.274;7.794;2023-05-01T01:45:46;9.75;;;7.60;;
21721;SDS011;11023;48.274;7.794;2023-05-01T01:48:16;9.60;;;7.90;;
21721;SDS011;11023;48.274;7.794;2023-05-01T01:50:46;11.88;;;8.18;;
21721;SDS011;11023;48.274;7.794;2023-05-01T01:53:13;9.90;;;7.88;;
21721;SDS011;11023;48.274;7.794;2023-05-01T01:55:42;9.60;;;7.72;;
21721;SDS011;11023;48.274;7.794;2023-05-01T01:58:10;10.48;;;8.88;;
21721;SDS011;11023;48.274;7.794;2023-05-01T02:00:38;10.25;;;8.48;;
21721;SDS011;11023;48.274;7.794;2023-05-01T02:03:06;9.35;;;7.78;;
21721;SDS011;11023;48.274;7.794;2023-05-01T02:05:35;10.13;;;8.63;;
21721;SDS011;11023;48.274;7.794;2023-05-01T02:08:06;10.88;;;8.32;;
21721;SDS011;11023;48.274;7.794;2023-05-01T02:10:32;13.38;;;8.80;;
21721;SDS011;11023;48.274;7.794;2023-05-01T02:12:59;11.45;;;8.55;;
21721;SDS011;11023;48.274;7.794;2023-05-01T02:15:27;10.50;;;8.60;;
21721;SDS011;11023;48.274;7.794;2023-05-01T02:17:54;11.60;;;8.70;;
21721;SDS011;11023;48.274;7.794;2023-05-01T02:20:21;8.85;;;7.95;;
21721;SDS011;11023;48.274;7.794;2023-05-01T02:22:47;11.13;;;7.72;;
21721;SDS011;11023;48.274;7.794;2023-05-01T02:25:17;9.95;;;7.13;;
21721;SDS011;11023;48.274;7.794;2023-05-01T02:27:47;9.38;;;7.60;;
21721;SDS011;11023;48.274;7.794;2023-05-01T02:30:19;11.90;;;7.57;;
21721;SDS011;11023;48.274;7.794;2023-05-01T02:32:45;12.13;;;8.50;;
21721;SDS011;11023;48.274;7.794;2023-05-01T02:35:11;8.68;;;7.78;;
21721;SDS011;11023;48.274;7.794;2023-05-01T02:37:39;8.82;;;7.50;;
21721;SDS011;11023;48.274;7.794;2023-05-01T02:40:05;10.65;;;8.00;;
21721;SDS011;11023;48.274;7.794;2023-05-01T02:42:32;9.20;;;7.40;;
21721;SDS011;11023;48.274;7.794;2023-05-01T02:45:05;9.32;;;8.02;;
21721;SDS011;11023;48.274;7.794;2023-05-01T02:47:36;10.43;;;7.90;;
21721;SDS011;11023;48.274;7.794;2023-05-01T02:50:03;9.23;;;7.25;;
21721;SDS011;11023;48.274;7.794;2023-05-01T02:52:30;12.50;;;8.50;;
21721;SDS011;11023;48.274;7.794;2023-05-01T02:54:56;9.48;;;7.80;;
21721;SDS011;11023;48.274;7.794;2023-05-01T02:57:23;9.02;;;7.50;;
21721;SDS011;11023;48.274;7.794;2023-05-01T02:59:48;13.30;;;8.32;;
21721;SDS011;11023;48.274;7.794;2023-05-01T03:02:14;8.95;;;8.00;;
21721;SDS011;11023;48.274;7.794;2023-05-01T03:04:41;9.27;;;7.80;;
21721;SDS011;11023;48.274;7.794;2023-05-01T03:07:07;9.15;;;8.25;;
21721;SDS011;11023;48.274;7.794;2023-05-01T03:09:33;10.38;;;7.78;;
21721;SDS011;11023;48.274;7.794;2023-05-01T03:11:59;9.98;;;7.90;;
21721;SDS011;11023;48.274;7.794;2023-05-01T03:14:25;12.60;;;7.97;;
21721;SDS011;11023;48.274;7.794;2023-05-01T03:16:52;9.20;;;8.30;;
21721;SDS011;11023;48.274;7.794;2023-05-01T03:19:18;11.07;;;8.98;;
21721;SDS011;11023;48.274;7.794;2023-05-01T03:21:44;9.25;;;8.35;;
21721;SDS011;11023;48.274;7.794;2023-05-01T03:24:10;10.27;;;8.73;;
21721;SDS011;11023;48.274;7.794;2023-05-01T03:26:36;10.68;;;8.93;;
21721;SDS011;11023;48.274;7.794;2023-05-01T03:29:02;10.43;;;9.07;;
21721;SDS011;11023;48.274;7.794;2023-05-01T03:31:28;9.93;;;8.93;;
21721;SDS011;11023;48.274;7.794;2023-05-01T03:33:53;9.55;;;8.55;;
21721;SDS011;11023;48.274;7.794;2023-05-01T03:36:19;12.20;;;8.95;;
21721;SDS011;11023;48.274;7.794;2023-05-01T03:38:49;9.57;;;8.57;;
21721;SDS011;11023;48.274;7.794;2023-05-01T03:41:15;10.77;;;8.70;;
21721;SDS011;11023;48.274;7.794;2023-05-01T03:43:41;10.38;;;9.18;;
21721;SDS011;11023;48.274;7.794;2023-05-01T03:46:07;12.07;;;9.07;;
21721;SDS011;11023;48.274;7.794;2023-05-01T03:48:32;10.52;;;9.10;;
21721;SDS011;11023;48.274;7.794;2023-05-01T03:50:58;11.35;;;9.38;;
21721;SDS011;11023;48.274;7.794;2023-05-01T03:53:24;9.38;;;8.40;;
21721;SDS011;11023;48.274;7.794;2023-05-01T03:55:50;9.85;;;8.80;;
21721;SDS011;11023;48.274;7.794;2023-05-01T03:58:16;9.35;;;8.45;;
21721;SDS011;11023;48.274;7.794;2023-05-01T04:00:41;9.90;;;8.90;;
21721;SDS011;11023;48.274;7.794;2023-05-01T04:03:08;10.80;;;8.48;;
21721;SDS011;11023;48.274;7.794;2023-05-01T04:05:35;9.05;;;8.13;;
21721;SDS011;11023;48.274;7.794;2023-05-01T04:08:01;10.98;;;9.18;;
21721;SDS011;11023;48.274;7.794;2023-05-01T04:10:28;11.77;;;8.93;;
21721;SDS011;11023;48.274;7.794;2023-05-01T04:12:55;13.13;;;9.25;;
21721;SDS011;11023;48.274;7.794;2023-05-01T04:15:21;12.10;;;8.80;;
21721;SDS011;11023;48.274;7.794;2023-05-01T04:17:46;12.02;;;9.35;;
21721;SDS011;11023;48.274;7.794;2023-05-01T04:20:12;11.20;;;9.32;;
21721;SDS011;11023;48.274;7.794;2023-05-01T04:22:40;10.68;;;9.15;;
21721;SDS011;11023;48.274;7.794;2023-05-01T04:25:06;11.35;;;9.23;;
21721;SDS011;11023;48.274;7.794;2023-05-01T04:27:32;10.07;;;8.55;;
21721;SDS011;11023;48.274;7.794;2023-05-01T04:29:58;9.98;;;8.80;;
21721;SDS011;11023;48.274;7.794;2023-05-01T04:32:24;11.23;;;8.65;;
21721;SDS011;11023;48.274;7.794;2023-05-01T04:34:49;11.30;;;9.27;;
21721;SDS011;11023;48.274;7.794;2023-05-01T04:37:15;9.52;;;8.48;;
21721;SDS011;11023;48.274;7.794;2023-05-01T04:39:42;17.77;;;9.15;;
21721;SDS011;11023;48.274;7.794;2023-05-01T04:42:08;10.35;;;9.30;;
21721;SDS011;11023;48.274;7.794;2023-05-01T04:44:34;11.73;;;9.27;;
21721;SDS011;11023;48.274;7.794;2023-05-01T04:47:01;9.73;;;8.70;;
21721;SDS011;11023;48.274;7.794;2023-05-01T04:49:28;10.20;;;9.20;;
21721;SDS011;11023;48.274;7.794;2023-05-01T04:51:53;11.50;;;9.77;;
21721;SDS011;11023;48.274;7.794;2023-05-01T04:54:19;10.50;;;9.35;;
21721;SDS011;11023;48.274;7.794;2023-05-01T04:56:47;12.43;;;9.70;;
21721;SDS011;11023;48.274;7.794;2023-05-01T04:59:12;10.90;;;8.75;;
21721;SDS011;11023;48.274;7.794;2023-05-01T05:01:38;10.38;;;8.82;;
21721;SDS011;11023;48.274;7.794;2023-05-01T05:04:05;10.90;;;9.07;;
21721;SDS011;11023;48.274;7.794;2023-05-01T05:06:31;9.63;;;8.63;;
21721;SDS011;11023;48.274;7.794;2023-05-01T05:08:57;9.80;;;8.77;;
21721;SDS011;11023;48.274;7.794;2023-05-01T05:11:23;10.10;;;9.10;;
21721;SDS011;11023;48.274;7.794;2023-05-01T05:13:48;10.20;;;9.18;;
21721;SDS011;11023;48.274;7.794;2023-05-01T05:16:14;10.82;;;9.57;;
21721;SDS011;11023;48.274;7.794;2023-05-01T05:18:40;10.25;;;8.18;;
21721;SDS011;11023;48.274;7.794;2023-05-01T05:21:06;11.88;;;9.20;;
21721;SDS011;11023;48.274;7.794;2023-05-01T05:23:35;14.20;;;10.13;;
21721;SDS011;11023;48.274;7.794;2023-05-01T05:26:01;10.73;;;9.30;;
21721;SDS011;11023;48.274;7.794;2023-05-01T05:28:27;11.27;;;9.38;;
21721;SDS011;11023;48.274;7.794;2023-05-01T05:30:54;10.23;;;9.23;;
21721;SDS011;11023;48.274;7.794;2023-05-01T05:33:21;14.52;;;8.93;;
21721;SDS011;11023;48.274;7.794;2023-05-01T05:35:49;11.48;;;9.50;;
21721;SDS011;11023;48.274;7.794;2023-05-01T05:38:16;11.68;;;9.90;;
21721;SDS011;11023;48.274;7.794;2023-05-01T05:40:42;10.73;;;9.63;;
21721;SDS011;11023;48.274;7.794;2023-05-01T05:43:07;10.80;;;9.70;;
21721;SDS011;11023;48.274;7.794;2023-05-01T05:45:34;12.32;;;10.18;;
21721;SDS011;11023;48.274;7.794;2023-05-01T05:48:02;12.73;;;9.95;;
21721;SDS011;11023;48.274;7.794;2023-05-01T05:50:28;11.13;;;9.95;;
21721;SDS011;11023;48.274;7.794;2023-05-01T05:52:54;13.52;;;10.38;;
21721;SDS011;11023;48.274;7.794;2023-05-01T05:55:20;10.85;;;9.70;;
21721;SDS011;11023;48.274;7.794;2023-05-01T05:57:46;11.80;;;9.70;;
21721;SDS011;11023;48.274;7.794;2023-05-01T06:00:12;10.90;;;9.65;;
21721;SDS011;11023;48.274;7.794;2023-05-01T06:02:38;9.98;;;8.95;;
21721;SDS011;11023;48.274;7.794;2023-05-01T06:05:04;12.05;;;9.20;;
21721;SDS011;11023;48.274;7.794;2023-05-01T06:07:30;10.57;;;9.50;;
21721;SDS011;11023;48.274;7.794;2023-05-01T06:09:56;10.80;;;9.70;;
21721;SDS011;11023;48.274;7.794;2023-05-01T06:12:28;10.63;;;9.45;;
21721;SDS011;11023;48.274;7.794;2023-05-01T06:14:55;11.90;;;10.55;;
21721;SDS011;11023;48.274;7.794;2023-05-01T06:17:22;12.02;;;10.25;;
21721;SDS011;11023;48.274;7.794;2023-05-01T06:19:49;12.02;;;10.73;;
21721;SDS011;11023;48.274;7.794;2023-05-01T06:22:17;11.85;;;10.65;;
21721;SDS011;11023;48.274;7.794;2023-05-01T06:24:44;11.73;;;10.50;;
21721;SDS011;11023;48.274;7.794;2023-05-01T06:27:10;12.27;;;11.05;;
21721;SDS011;11023;48.274;7.794;2023-05-01T06:29:36;11.88;;;10.65;;
21721;SDS011;11023;48.274;7.794;2023-05-01T06:32:04;13.02;;;10.35;;
21721;SDS011;11023;48.274;7.794;2023-05-01T06:34:29;12.57;;;10.63;;
21721;SDS011;11023;48.274;7.794;2023-05-01T06:36:55;12.43;;;10.63;;
21721;SDS011;11023;48.274;7.794;2023-05-01T06:39:21;17.02;;;11.07;;
21721;SDS011;11023;48.274;7.794;2023-05-01T06:41:49;12.80;;;11.18;;
21721;SDS011;11023;48.274;7.794;2023-05-01T06:44:14;13.60;;;11.18;;
21721;SDS011;11023;48.274;7.794;2023-05-01T06:46:40;11.57;;;10.30;;
21721;SDS011;11023;48.274;7.794;2023-05-01T06:49:06;11.82;;;10.65;;
21721;SDS011;11023;48.274;7.794;2023-05-01T06:51:35;11.90;;;10.70;;
21721;SDS011;11023;48.274;7.794;2023-05-01T06:54:01;12.20;;;10.65;;
21721;SDS011;11023;48.274;7.794;2023-05-01T06:56:30;13.32;;;10.70;;
21721;SDS011;11023;48.274;7.794;2023-05-01T06:59:03;11.65;;;10.45;;
21721;SDS011;11023;48.274;7.794;2023-05-01T07:01:29;11.30;;;10.10;;
21721;SDS011;11023;48.274;7.794;2023-05-01T07:03:55;12.35;;;10.63;;
21721;SDS011;11023;48.274;7.794;2023-05-01T07:06:21;11.43;;;9.73;;
21721;SDS011;11023;48.274;7.794;2023-05-01T07:08:51;11.80;;;9.95;;
21721;SDS011;11023;48.274;7.794;2023-05-01T07:11:17;11.80;;;9.23;;
21721;SDS011;11023;48.274;7.794;2023-05-01T07:13:44;10.63;;;9.52;;
21721;SDS011;11023;48.274;7.794;2023-05-01T07:16:10;11.88;;;9.98;;
21721;SDS011;11023;48.274;7.794;2023-05-01T07:18:36;10.77;;;9.30;;
21721;SDS011;11023;48.274;7.794;2023-05-01T07:21:01;11.63;;;9.98;;
21721;SDS011;11023;48.274;7.794;2023-05-01T07:23:27;10.98;;;9.77;;
21721;SDS011;11023;48.274;7.794;2023-05-01T07:25:53;13.07;;;10.25;;
21721;SDS011;11023;48.274;7.794;2023-05-01T07:28:19;13.07;;;10.02;;
21721;SDS011;11023;48.274;7.794;2023-05-01T07:30:46;11.52;;;9.15;;
21721;SDS011;11023;48.274;7.794;2023-05-01T07:33:12;10.30;;;9.18;;
21721;SDS011;11023;48.274;7.794;2023-05-01T07:35:38;13.10;;;9.55;;
21721;SDS011;11023;48.274;7.794;2023-05-01T07:38:04;10.90;;;9.80;;
21721;SDS011;11023;48.274;7.794;2023-05-01T07:40:31;9.93;;;8.82;;
21721;SDS011;11023;48.274;7.794;2023-05-01T07:42:58;10.65;;;9.55;;
21721;SDS011;11023;48.274;7.794;2023-05-01T07:45:24;9.77;;;8.63;;
21721;SDS011;11023;48.274;7.794;2023-05-01T07:47:51;9.50;;;8.57;;
21721;SDS011;11023;48.274;7.794;2023-05-01T07:50:17;8.20;;;7.50;;
21721;SDS011;11023;48.274;7.794;2023-05-01T07:52:43;7.85;;;7.05;;
21721;SDS011;11023;48.274;7.794;2023-05-01T07:55:09;7.80;;;6.82;;
21721;SDS011;11023;48.274;7.794;2023-05-01T07:57:35;7.47;;;6.47;;
21721;SDS011;11023;48.274;7.794;2023-05-01T08:00:01;7.35;;;6.65;;
21721;SDS011;11023;48.274;7.794;2023-05-01T08:02:27;7.07;;;6.38;;
21721;SDS011;11023;48.274;7.794;2023-05-01T08:04:53;7.57;;;6.88;;
21721;SDS011;11023;48.274;7.794;2023-05-01T08:07:18;6.90;;;6.28;;
21721;SDS011;11023;48.274;7.794;2023-05-01T08:09:44;7.15;;;6.10;;
21721;SDS011;11023;48.274;7.794;2023-05-01T08:12:12;6.30;;;5.70;;
21721;SDS011;11023;48.274;7.794;2023-05-01T08:14:38;7.13;;;6.43;;
21721;SDS011;11023;48.274;7.794;2023-05-01T08:17:04;6.30;;;5.65;;
21721;SDS011;11023;48.274;7.794;2023-05-01T08:19:29;6.32;;;5.60;;
21721;SDS011;11023;48.274;7.794;2023-05-01T08:21:55;6.35;;;5.68;;
21721;SDS011;11023;48.274;7.794;2023-05-01T08:24:21;5.60;;;5.10;;
21721;SDS011;11023;48.274;7.794;2023-05-01T08:26:47;5.63;;;5.13;;
21721;SDS011;11023;48.274;7.794;2023-05-01T08:29:14;7.70;;;5.90;;
21721;SDS011;11023;48.274;7.794;2023-05-01T08:31:40;6.75;;;5.50;;
21721;SDS011;11023;48.274;7.794;2023-05-01T08:34:07;5.72;;;5.13;;
21721;SDS011;11023;48.274;7.794;2023-05-01T08:36:33;4.78;;;4.38;;
21721;SDS011;11023;48.274;7.794;2023-05-01T08:38:59;5.35;;;4.85;;
21721;SDS011;11023;48.274;7.794;2023-05-01T08:41:26;5.57;;;4.50;;
21721;SDS011;11023;48.274;7.794;2023-05-01T08:43:52;5.00;;;4.32;;
21721;SDS011;11023;48.274;7.794;2023-05-01T08:46:47;5.13;;;4.63;;
21721;SDS011;11023;48.274;7.794;2023-05-01T08:49:17;4.63;;;4.20;;
21721;SDS011;11023;48.274;7.794;2023-05-01T08:51:46;4.10;;;3.70;;
21721;SDS011;11023;48.274;7.794;2023-05-01T08:54:16;4.53;;;4.10;;
21721;SDS011;11023;48.274;7.794;2023-05-01T08:56:45;4.63;;;4.18;;
21721;SDS011;11023;48.274;7.794;2023-05-01T08:59:14;4.90;;;3.67;;
21721;SDS011;11023;48.274;7.794;2023-05-01T09:01:44;4.53;;;4.13;;
21721;SDS011;11023;48.274;7.794;2023-05-01T09:04:23;4.00;;;3.65;;
21721;SDS011;11023;48.274;7.794;2023-05-01T09:06:49;4.00;;;3.60;;
21721;SDS011;11023;48.274;7.794;2023-05-01T09:09:19;5.53;;;4.60;;
21721;SDS011;11023;48.274;7.794;2023-05-01T09:11:45;3.78;;;3.47;;
21721;SDS011;11023;48.274;7.794;2023-05-01T09:14:14;5.43;;;4.05;;
21721;SDS011;11023;48.274;7.794;2023-05-01T09:16:45;4.55;;;4.15;;
21721;SDS011;11023;48.274;7.794;2023-05-01T09:19:11;4.00;;;3.70;;
21721;SDS011;11023;48.274;7.794;2023-05-01T09:21:37;4.20;;;3.80;;
21721;SDS011;11023;48.274;7.794;2023-05-01T09:24:05;4.20;;;3.80;;
21721;SDS011;11023;48.274;7.794;2023-05-01T09:26:32;4.30;;;3.90;;
21721;SDS011;11023;48.274;7.794;2023-05-01T09:29:00;4.78;;;4.22;;
21721;SDS011;11023;48.274;7.794;2023-05-01T09:31:27;3.78;;;3.47;;
21721;SDS011;11023;48.274;7.794;2023-05-01T09:33:59;4.00;;;3.60;;
21721;SDS011;11023;48.274;7.794;2023-05-01T09:36:32;2.60;;;2.40;;
21721;SDS011;11023;48.274;7.794;2023-05-01T09:39:00;2.80;;;2.60;;
21721;SDS011;11023;48.274;7.794;2023-05-01T09:41:26;3.20;;;2.90;;
21721;SDS011;11023;48.274;7.794;2023-05-01T09:43:54;3.80;;;3.10;;
21721;SDS011;11023;48.274;7.794;2023-05-01T09:46:39;3.38;;;3.00;;
21721;SDS011;11023;48.274;7.794;2023-05-01T09:49:18;3.33;;;2.92;;
21721;SDS011;11023;48.274;7.794;2023-05-01T09:51:44;3.00;;;2.40;;
21721;SDS011;11023;48.274;7.794;2023-05-01T09:54:19;3.40;;;3.00;;
21721;SDS011;11023;48.274;7.794;2023-05-01T09:56:45;3.15;;;2.75;;
21721;SDS011;11023;48.274;7.794;2023-05-01T09:59:15;3.38;;;2.60;;
21721;SDS011;11023;48.274;7.794;2023-05-01T10:01:44;3.55;;;2.30;;
21721;SDS011;11023;48.274;7.794;2023-05-01T10:04:11;2.60;;;2.40;;
21721;SDS011;11023;48.274;7.794;2023-05-01T10:06:37;2.70;;;2.50;;
21721;SDS011;11023;48.274;7.794;2023-05-01T10:09:03;16.30;;;14.30;;
21721;SDS011;11023;48.274;7.794;2023-05-01T10:11:51;6.35;;;5.75;;
21721;SDS011;11023;48.274;7.794;2023-05-01T10:14:19;21.63;;;17.65;;
21721;SDS011;11023;48.274;7.794;2023-05-01T10:16:48;5.60;;;4.80;;
21721;SDS011;11023;48.274;7.794;2023-05-01T10:19:15;5.50;;;5.00;;
21721;SDS011;11023;48.274;7.794;2023-05-01T10:21:41;7.40;;;6.70;;
21721;SDS011;11023;48.274;7.794;2023-05-01T10:24:07;3.50;;;2.80;;
21721;SDS011;11023;48.274;7.794;2023-05-01T10:26:34;4.20;;;2.53;;
21721;SDS011;11023;48.274;7.794;2023-05-01T10:29:01;2.65;;;2.40;;
21721;SDS011;11023;48.274;7.794;2023-05-01T10:31:27;3.65;;;2.85;;
21721;SDS011;11023;48.274;7.794;2023-05-01T10:33:54;3.17;;;2.50;;
21721;SDS011;11023;48.274;7.794;2023-05-01T10:36:24;2.40;;;2.20;;
21721;SDS011;11023;48.274;7.794;2023-05-01T10:38:53;2.53;;;2.33;;
21721;SDS011;11023;48.274;7.794;2023-05-01T10:42:02;3.45;;;3.15;;
21721;SDS011;11023;48.274;7.794;2023-05-01T10:44:23;9.43;;;6.75;;
21721;SDS011;11023;48.274;7.794;2023-05-01T10:46:50;11.32;;;7.57;;
21721;SDS011;11023;48.274;7.794;2023-05-01T10:49:16;14.65;;;9.77;;
21721;SDS011;11023;48.274;7.794;2023-05-01T10:54:24;8.48;;;7.57;;
21721;SDS011;11023;48.274;7.794;2023-05-01T10:56:51;4.10;;;3.70;;
21721;SDS011;11023;48.274;7.794;2023-05-01T10:59:18;6.18;;;5.57;;
21721;SDS011;11023;48.274;7.794;2023-05-01T11:01:45;17.25;;;15.40;;
21721;SDS011;11023;48.274;7.794;2023-05-01T11:07:15;9.85;;;7.20;;
21721;SDS011;11023;48.274;7.794;2023-05-01T11:09:48;51.15;;;30.00;;
21721;SDS011;11023;48.274;7.794;2023-05-01T11:15:11;37.25;;;24.58;;
21721;SDS011;11023;48.274;7.794;2023-05-01T11:20:06;65.03;;;36.05;;
21721;SDS011;11023;48.274;7.794;2023-05-01T11:22:33;42.08;;;24.75;;
21721;SDS011;11023;48.274;7.794;2023-05-01T11:25:00;27.15;;;18.48;;
21721;SDS011;11023;48.274;7.794;2023-05-01T11:27:44;54.50;;;33.65;;
21721;SDS011;11023;48.274;7.794;2023-05-01T11:30:14;60.20;;;43.35;;
21721;SDS011;11023;48.274;7.794;2023-05-01T11:32:44;92.75;;;64.25;;
21721;SDS011;11023;48.274;7.794;2023-05-01T11:35:17;73.07;;;55.10;;
21721;SDS011;11023;48.274;7.794;2023-05-01T11:37:45;18.38;;;15.00;;
21721;SDS011;11023;48.274;7.794;2023-05-01T11:42:44;7.57;;;6.07;;
21721;SDS011;11023;48.274;7.794;2023-05-01T11:45:09;5.70;;;4.63;;
21721;SDS011;11023;48.274;7.794;2023-05-01T11:47:36;3.38;;;2.40;;
21721;SDS011;11023;48.274;7.794;2023-05-01T11:50:02;3.47;;;2.40;;
21721;SDS011;11023;48.274;7.794;2023-05-01T11:52:29;3.65;;;2.28;;
21721;SDS011;11023;48.274;7.794;2023-05-01T11:54:55;2.83;;;2.53;;
21721;SDS011;11023;48.274;7.794;2023-05-01T11:57:20;4.35;;;2.78;;
21721;SDS011;11023;48.274;7.794;2023-05-01T11:59:46;2.78;;;2.53;;
21721;SDS011;11023;48.274;7.794;2023-05-01T12:02:18;2.42;;;2.10;;
21721;SDS011;11023;48.274;7.794;2023-05-01T12:04:44;3.65;;;2.40;;
21721;SDS011;11023;48.274;7.794;2023-05-01T12:07:22;2.63;;;2.38;;
21721;SDS011;11023;48.274;7.794;2023-05-01T12:09:48;3.63;;;2.20;;
21721;SDS011;11023;48.274;7.794;2023-05-01T12:12:15;4.90;;;3.60;;
21721;SDS011;11023;48.274;7.794;2023-05-01T12:14:41;2.95;;;2.70;;
21721;SDS011;11023;48.274;7.794;2023-05-01T12:17:07;3.10;;;2.38;;
21721;SDS011;11023;48.274;7.794;2023-05-01T12:19:44;2.50;;;2.30;;
21721;SDS011;11023;48.274;7.794;2023-05-01T12:22:12;2.50;;;2.30;;
21721;SDS011;11023;48.274;7.794;2023-05-01T12:24:47;2.20;;;2.00;;
21721;SDS011;11023;48.274;7.794;2023-05-01T12:27:15;2.65;;;2.45;;
21721;SDS011;11023;48.274;7.794;2023-05-01T12:29:41;2.80;;;2.58;;
21721;SDS011;11023;48.274;7.794;2023-05-01T12:32:08;2.78;;;2.50;;
21721;SDS011;11023;48.274;7.794;2023-05-01T12:34:34;3.55;;;2.53;;
21721;SDS011;11023;48.274;7.794;2023-05-01T12:37:00;2.50;;;2.30;;
21721;SDS011;11023;48.274;7.794;2023-05-01T12:39:30;4.72;;;2.50;;
21721;SDS011;11023;48.274;7.794;2023-05-01T12:42:12;3.20;;;2.38;;
21721;SDS011;11023;48.274;7.794;2023-05-01T12:44:39;2.70;;;2.50;;
21721;SDS011;11023;48.274;7.794;2023-05-01T12:47:06;2.40;;;2.10;;
21721;SDS011;11023;48.274;7.794;2023-05-01T12:49:33;3.25;;;2.28;;
21721;SDS011;11023;48.274;7.794;2023-05-01T12:52:03;2.67;;;2.30;;
21721;SDS011;11023;48.274;7.794;2023-05-01T12:54:32;3.65;;;2.33;;
21721;SDS011;11023;48.274;7.794;2023-05-01T12:57:12;3.25;;;2.10;;
21721;SDS011;11023;48.274;7.794;2023-05-01T12:59:40;2.88;;;2.15;;
21721;SDS011;11023;48.274;7.794;2023-05-01T13:02:07;3.42;;;2.15;;
21721;SDS011;11023;48.274;7.794;2023-05-01T13:04:39;4.78;;;2.00;;
21721;SDS011;11023;48.274;7.794;2023-05-01T13:07:12;2.22;;;1.92;;
21721;SDS011;11023;48.274;7.794;2023-05-01T13:09:39;3.10;;;1.90;;
21721;SDS011;11023;48.274;7.794;2023-05-01T13:12:22;2.77;;;2.07;;
21721;SDS011;11023;48.274;7.794;2023-05-01T13:14:49;1.95;;;1.85;;
21721;SDS011;11023;48.274;7.794;2023-05-01T13:17:25;2.47;;;2.10;;
21721;SDS011;11023;48.274;7.794;2023-05-01T13:19:59;2.10;;;1.90;;
21721;SDS011;11023;48.274;7.794;2023-05-01T13:22:29;2.25;;;1.90;;
21721;SDS011;11023;48.274;7.794;2023-05-01T13:25:18;2.20;;;2.00;;
21721;SDS011;11023;48.274;7.794;2023-05-01T13:27:51;2.42;;;1.80;;
21721;SDS011;11023;48.274;7.794;2023-05-01T13:30:17;2.45;;;2.25;;
21721;SDS011;11023;48.274;7.794;2023-05-01T13:32:47;3.47;;;2.00;;
21721;SDS011;11023;48.274;7.794;2023-05-01T13:35:20;2.22;;;2.03;;
21721;SDS011;11023;48.274;7.794;2023-05-01T13:37:51;5.38;;;2.20;;
21721;SDS011;11023;48.274;7.794;2023-05-01T13:40:17;2.50;;;2.30;;
21721;SDS011;11023;48.274;7.794;2023-05-01T13:42:44;4.07;;;2.20;;
21721;SDS011;11023;48.274;7.794;2023-05-01T13:45:11;2.20;;;2.00;;
21721;SDS011;11023;48.274;7.794;2023-05-01T13:47:38;3.03;;;2.50;;
21721;SDS011;11023;48.274;7.794;2023-05-01T13:50:09;3.00;;;2.40;;
21721;SDS011;11023;48.274;7.794;2023-05-01T13:52:40;2.20;;;2.00;;
21721;SDS011;11023;48.274;7.794;2023-05-01T13:55:10;2.88;;;2.35;;
21721;SDS011;11023;48.274;7.794;2023-05-01T13:57:36;2.22;;;2.03;;
21721;SDS011;11023;48.274;7.794;2023-05-01T14:00:05;2.38;;;2.22;;
21721;SDS011;11023;48.274;7.794;2023-05-01T14:02:44;3.13;;;2.15;;
21721;SDS011;11023;48.274;7.794;2023-05-01T14:05:13;3.40;;;2.08;;
21721;SDS011;11023;48.274;7.794;2023-05-01T14:07:43;2.42;;;2.22;;
21721;SDS011;11023;48.274;7.794;2023-05-01T14:10:19;2.38;;;2.10;;
21721;SDS011;11023;48.274;7.794;2023-05-01T14:12:47;2.50;;;2.30;;
21721;SDS011;11023;48.274;7.794;2023-05-01T14:15:12;2.55;;;2.30;;
21721;SDS011;11023;48.274;7.794;2023-05-01T14:17:38;2.70;;;2.50;;
21721;SDS011;11023;48.274;7.794;2023-05-01T14:20:05;4.78;;;2.80;;
21721;SDS011;11023;48.274;7.794;2023-05-01T14:22:33;3.58;;;2.60;;
21721;SDS011;11023;48.274;7.794;2023-05-01T14:25:07;3.05;;;2.65;;
21721;SDS011;11023;48.274;7.794;2023-05-01T14:27:57;2.92;;;2.65;;
21721;SDS011;11023;48.274;7.794;2023-05-01T14:30:28;3.45;;;2.38;;
21721;SDS011;11023;48.274;7.794;2023-05-01T14:32:57;4.40;;;2.70;;
21721;SDS011;11023;48.274;7.794;2023-05-01T14:35:30;3.15;;;2.70;;
21721;SDS011;11023;48.274;7.794;2023-05-01T14:38:11;3.23;;;2.90;;
21721;SDS011;11023;48.274;7.794;2023-05-01T14:40:39;3.55;;;3.00;;
21721;SDS011;11023;48.274;7.794;2023-05-01T14:43:17;3.28;;;2.97;;
21721;SDS011;11023;48.274;7.794;2023-05-01T14:45:47;3.92;;;3.00;;
21721;SDS011;11023;48.274;7.794;2023-05-01T14:48:20;4.60;;;3.15;;
21721;SDS011;11023;48.274;7.794;2023-05-01T14:50:47;3.38;;;3.00;;
21721;SDS011;11023;48.274;7.794;2023-05-01T14:53:13;3.15;;;2.80;;
21721;SDS011;11023;48.274;7.794;2023-05-01T14:55:42;3.97;;;2.88;;
21721;SDS011;11023;48.274;7.794;2023-05-01T14:58:08;3.45;;;3.10;;
21721;SDS011;11023;48.274;7.794;2023-05-01T15:00:37;5.82;;;3.70;;
21721;SDS011;11023;48.274;7.794;2023-05-01T15:03:06;3.80;;;3.38;;
21721;SDS011;11023;48.274;7.794;2023-05-01T15:05:43;4.32;;;3.40;;
21721;SDS011;11023;48.274;7.794;2023-05-01T15:08:24;6.45;;;3.40;;
21721;SDS011;11023;48.274;7.794;2023-05-01T15:10:54;3.80;;;3.40;;
21721;SDS011;11023;48.274;7.794;2023-05-01T15:13:23;4.03;;;3.33;;
21721;SDS011;11023;48.274;7.794;2023-05-01T15:16:02;4.78;;;3.03;;
21721;SDS011;11023;48.274;7.794;2023-05-01T15:18:44;4.95;;;2.97;;
21721;SDS011;11023;48.274;7.794;2023-05-01T15:21:39;4.43;;;3.20;;